F/V Attalaya Berria — FHCB — position and weather

sailwx.info

Track history (hours):
 
Tides and Currents Weather Stations Pressure Air Temp Water Temp Dewpoint Dewpoint Depression Visibility Wind Speed Wind Dir Waves Ship Positions

F/V Attalaya Berria

Last reported at 2017-Jul-25 22:28 UTC. Time now 2017-Jul-25 22:31 UTC.
Position N 43°25' W 001°48'.

Length 26 m.

Type: Fishing. MMSI: 228315000.

Date/timePositionNaut miles runAvg speedWind from/ knotsBaromVisibWave heightAir tempDewpointWater temp
2017-Jul-25 22:28N 43°25' W 001°48'  
2017-Jul-20 08:30N 43°23' W 001°47'2 3.9
2017-Jul-20 08:00N 43°25' W 001°48'2 0.1
2017-Jul-19 14:33N 43°26' W 001°46'1 8.5
2017-Jul-19 14:24N 43°26' W 001°44'3 8.4
2017-Jul-19 14:00N 43°24' W 001°41'1 1.6
2017-Jul-19 13:28N 43°23' W 001°40'0 0.1
2017-Jul-19 12:57N 43°23' W 001°40'0 0.1
2017-Jul-19 12:30N 43°23' W 001°40'0 0.0
2017-Jul-19 12:00N 43°23' W 001°40'0 0.0
2017-Jul-19 11:30N 43°23' W 001°40'0 0.0
2017-Jul-19 11:00N 43°23' W 001°40'0 0.0
2017-Jul-19 10:30N 43°23' W 001°40'0 0.0
2017-Jul-19 10:00N 43°23' W 001°40'0 0.0
2017-Jul-19 09:30N 43°23' W 001°40'0 0.0
2017-Jul-19 09:00N 43°23' W 001°40'0 0.0
2017-Jul-19 08:30N 43°23' W 001°40'1 1.2
2017-Jul-19 08:00N 43°24' W 001°40'1 2.6
2017-Jul-19 07:30N 43°25' W 001°42'2 4.6
2017-Jul-19 07:00N 43°25' W 001°45'47 4.1
2017-Jul-18 19:24N 44°13' W 001°45'18 9.3
2017-Jul-18 17:29N 44°23' W 002°05'48 2.6
2017-Jul-17 23:04N 43°36' W 001°53'0 9.3
2017-Jul-17 23:00N 43°35' W 001°53'6 9.4
2017-Jul-17 22:24N 43°30' W 001°50'4 9.3
2017-Jul-17 21:57N 43°26' W 001°48'3 6.4
2017-Jul-17 21:30N 43°23' W 001°47'0 0.0
2017-Jul-17 21:00N 43°23' W 001°47'0 0.0
2017-Jul-17 20:30N 43°23' W 001°47'0 0.0
2017-Jul-17 20:00N 43°23' W 001°47'0 0.0
2017-Jul-17 19:30N 43°23' W 001°47'0 0.0
2017-Jul-17 19:00N 43°23' W 001°47'0 0.0
2017-Jul-17 18:30N 43°23' W 001°47'0 0.0
2017-Jul-17 18:00N 43°23' W 001°47'0 0.0
2017-Jul-17 17:30N 43°23' W 001°47'0 0.0
2017-Jul-17 17:00N 43°23' W 001°47'0 0.0
2017-Jul-17 16:30N 43°23' W 001°47'0 0.0
2017-Jul-17 16:00N 43°23' W 001°47'0 0.0
2017-Jul-17 15:30N 43°23' W 001°47'0 0.0
2017-Jul-17 15:00N 43°23' W 001°47'0 0.0
2017-Jul-17 14:30N 43°23' W 001°47'0 0.0
2017-Jul-17 14:00N 43°23' W 001°47'0 0.0
2017-Jul-17 13:30N 43°23' W 001°47'0 0.0
2017-Jul-17 13:00N 43°23' W 001°47'0 0.0
2017-Jul-17 12:30N 43°23' W 001°47'0 0.0
2017-Jul-17 12:00N 43°23' W 001°47'0 0.0
2017-Jul-17 11:30N 43°23' W 001°47'0 0.0
2017-Jul-17 11:00N 43°23' W 001°47'0 0.0
2017-Jul-17 10:30N 43°23' W 001°47'0 0.0
2017-Jul-17 10:00N 43°23' W 001°47'0 0.0
2017-Jul-17 09:30N 43°23' W 001°47'0 0.0
2017-Jul-17 09:00N 43°23' W 001°47'0 0.0
2017-Jul-17 08:30N 43°23' W 001°47'0 0.0
2017-Jul-17 08:00N 43°23' W 001°47'0 0.0
2017-Jul-17 07:30N 43°23' W 001°47'0 0.0
2017-Jul-17 07:00N 43°23' W 001°47'0 0.0
2017-Jul-17 06:30N 43°23' W 001°47'0 0.0
2017-Jul-17 06:00N 43°23' W 001°47'0 0.0
2017-Jul-17 05:30N 43°23' W 001°47'0 0.0
2017-Jul-17 05:00N 43°23' W 001°47'0 0.0
2017-Jul-17 04:30N 43°23' W 001°47'0 0.4
2017-Jul-17 04:00N 43°23' W 001°47'0 0.3
2017-Jul-17 03:30N 43°23' W 001°47'0 0.1
2017-Jul-17 03:00N 43°23' W 001°47'0 0.0
2017-Jul-17 02:30N 43°23' W 001°47'0 0.0
2017-Jul-17 02:00N 43°23' W 001°47'0 0.0
2017-Jul-17 01:30N 43°23' W 001°47'0 0.0
2017-Jul-17 01:00N 43°23' W 001°47'0 0.0
2017-Jul-17 00:30N 43°23' W 001°47'0 0.0
2017-Jul-17 00:00N 43°23' W 001°47'0 0.0
2017-Jul-16 23:30N 43°23' W 001°47'0 0.0
2017-Jul-16 23:00N 43°23' W 001°47'0 0.0
2017-Jul-16 22:30N 43°23' W 001°47'0 0.0
2017-Jul-16 22:00N 43°23' W 001°47'0 0.0
2017-Jul-16 21:30N 43°23' W 001°47'0 0.0
2017-Jul-16 21:00N 43°23' W 001°47'0 0.0
2017-Jul-16 20:30N 43°23' W 001°47'0 0.0
2017-Jul-16 20:00N 43°23' W 001°47'0 0.0
2017-Jul-16 19:30N 43°23' W 001°47'1 1.5
2017-Jul-16 19:00N 43°24' W 001°47'45 3.9
2017-Jul-16 07:17N 44°04' W 002°16'2 6.9
2017-Jul-16 06:58N 44°06' W 002°18'4 4.5
2017-Jul-16 06:11N 44°04' W 002°22'1 6.8
2017-Jul-16 06:00N 44°05' W 002°23'3 6.0
2017-Jul-16 05:27N 44°05' W 002°27'3 5.8
2017-Jul-16 05:00N 44°07' W 002°30'0 0.4
2017-Jul-16 04:30N 44°07' W 002°30'0 0.5
2017-Jul-16 04:00N 44°07' W 002°30'0 0.6
2017-Jul-16 03:30N 44°07' W 002°29'0 0.6
2017-Jul-16 03:00N 44°07' W 002°29'0 0.8
2017-Jul-16 02:30N 44°08' W 002°29'0 0.8
2017-Jul-16 02:00N 44°08' W 002°28'0 0.8
2017-Jul-16 01:30N 44°08' W 002°28'0 0.8
2017-Jul-16 01:00N 44°08' W 002°28'0 0.8
2017-Jul-16 00:30N 44°09' W 002°27'0 0.8
2017-Jul-15 23:59N 44°09' W 002°27'1 0.8
2017-Jul-15 23:14N 44°10' W 002°27'  
Track history (hours):
 
Tides and Currents Weather Stations Pressure Air Temp Water Temp Dewpoint Dewpoint Depression Visibility Wind Speed Wind Dir Waves Ship Positions

F/V Attalaya Berria

Last reported at 2017-Jul-25 22:28 UTC. Time now 2017-Jul-25 22:31 UTC.
Position N 43°25' W 001°48'.

Length 26 m.

Type: Fishing. MMSI: 228315000.

Date/timePositionNaut miles runAvg speedWind from/ knotsBaromVisibWave heightAir tempDewpointWater temp
2017-Jul-25 22:28N 43°25' W 001°48'  
2017-Jul-20 08:30N 43°23' W 001°47'2 3.9
2017-Jul-20 08:00N 43°25' W 001°48'2 0.1
2017-Jul-19 14:33N 43°26' W 001°46'1 8.5
2017-Jul-19 14:24N 43°26' W 001°44'3 8.4
2017-Jul-19 14:00N 43°24' W 001°41'1 1.6
2017-Jul-19 13:28N 43°23' W 001°40'0 0.1
2017-Jul-19 12:57N 43°23' W 001°40'0 0.1
2017-Jul-19 12:30N 43°23' W 001°40'0 0.0
2017-Jul-19 12:00N 43°23' W 001°40'0 0.0
2017-Jul-19 11:30N 43°23' W 001°40'0 0.0
2017-Jul-19 11:00N 43°23' W 001°40'0 0.0
2017-Jul-19 10:30N 43°23' W 001°40'0 0.0
2017-Jul-19 10:00N 43°23' W 001°40'0 0.0
2017-Jul-19 09:30N 43°23' W 001°40'0 0.0
2017-Jul-19 09:00N 43°23' W 001°40'0 0.0
2017-Jul-19 08:30N 43°23' W 001°40'1 1.2
2017-Jul-19 08:00N 43°24' W 001°40'1 2.6
2017-Jul-19 07:30N 43°25' W 001°42'2 4.6
2017-Jul-19 07:00N 43°25' W 001°45'47 4.1
2017-Jul-18 19:24N 44°13' W 001°45'18 9.3
2017-Jul-18 17:29N 44°23' W 002°05'48 2.6
2017-Jul-17 23:04N 43°36' W 001°53'0 9.3
2017-Jul-17 23:00N 43°35' W 001°53'6 9.4
2017-Jul-17 22:24N 43°30' W 001°50'4 9.3
2017-Jul-17 21:57N 43°26' W 001°48'3 6.4
2017-Jul-17 21:30N 43°23' W 001°47'0 0.0
2017-Jul-17 21:00N 43°23' W 001°47'0 0.0
2017-Jul-17 20:30N 43°23' W 001°47'0 0.0
2017-Jul-17 20:00N 43°23' W 001°47'0 0.0
2017-Jul-17 19:30N 43°23' W 001°47'0 0.0
2017-Jul-17 19:00N 43°23' W 001°47'0 0.0
2017-Jul-17 18:30N 43°23' W 001°47'0 0.0
2017-Jul-17 18:00N 43°23' W 001°47'0 0.0
2017-Jul-17 17:30N 43°23' W 001°47'0 0.0
2017-Jul-17 17:00N 43°23' W 001°47'0 0.0
2017-Jul-17 16:30N 43°23' W 001°47'0 0.0
2017-Jul-17 16:00N 43°23' W 001°47'0 0.0
2017-Jul-17 15:30N 43°23' W 001°47'0 0.0
2017-Jul-17 15:00N 43°23' W 001°47'0 0.0
2017-Jul-17 14:30N 43°23' W 001°47'0 0.0
2017-Jul-17 14:00N 43°23' W 001°47'0 0.0
2017-Jul-17 13:30N 43°23' W 001°47'0 0.0
2017-Jul-17 13:00N 43°23' W 001°47'0 0.0
2017-Jul-17 12:30N 43°23' W 001°47'0 0.0
2017-Jul-17 12:00N 43°23' W 001°47'0 0.0
2017-Jul-17 11:30N 43°23' W 001°47'0 0.0
2017-Jul-17 11:00N 43°23' W 001°47'0 0.0
2017-Jul-17 10:30N 43°23' W 001°47'0 0.0
2017-Jul-17 10:00N 43°23' W 001°47'0 0.0
2017-Jul-17 09:30N 43°23' W 001°47'0 0.0
2017-Jul-17 09:00N 43°23' W 001°47'0 0.0
2017-Jul-17 08:30N 43°23' W 001°47'0 0.0
2017-Jul-17 08:00N 43°23' W 001°47'0 0.0
2017-Jul-17 07:30N 43°23' W 001°47'0 0.0
2017-Jul-17 07:00N 43°23' W 001°47'0 0.0
2017-Jul-17 06:30N 43°23' W 001°47'0 0.0
2017-Jul-17 06:00N 43°23' W 001°47'0 0.0
2017-Jul-17 05:30N 43°23' W 001°47'0 0.0
2017-Jul-17 05:00N 43°23' W 001°47'0 0.0
2017-Jul-17 04:30N 43°23' W 001°47'0 0.4
2017-Jul-17 04:00N 43°23' W 001°47'0 0.3
2017-Jul-17 03:30N 43°23' W 001°47'0 0.1
2017-Jul-17 03:00N 43°23' W 001°47'0 0.0
2017-Jul-17 02:30N 43°23' W 001°47'0 0.0
2017-Jul-17 02:00N 43°23' W 001°47'0 0.0
2017-Jul-17 01:30N 43°23' W 001°47'0 0.0
2017-Jul-17 01:00N 43°23' W 001°47'0 0.0
2017-Jul-17 00:30N 43°23' W 001°47'0 0.0
2017-Jul-17 00:00N 43°23' W 001°47'0 0.0
2017-Jul-16 23:30N 43°23' W 001°47'0 0.0
2017-Jul-16 23:00N 43°23' W 001°47'0 0.0
2017-Jul-16 22:30N 43°23' W 001°47'0 0.0
2017-Jul-16 22:00N 43°23' W 001°47'0 0.0
2017-Jul-16 21:30N 43°23' W 001°47'0 0.0
2017-Jul-16 21:00N 43°23' W 001°47'0 0.0
2017-Jul-16 20:30N 43°23' W 001°47'0 0.0
2017-Jul-16 20:00N 43°23' W 001°47'0 0.0
2017-Jul-16 19:30N 43°23' W 001°47'1 1.5
2017-Jul-16 19:00N 43°24' W 001°47'45 3.9
2017-Jul-16 07:17N 44°04' W 002°16'2 6.9
2017-Jul-16 06:58N 44°06' W 002°18'4 4.5
2017-Jul-16 06:11N 44°04' W 002°22'1 6.8
2017-Jul-16 06:00N 44°05' W 002°23'3 6.0
2017-Jul-16 05:27N 44°05' W 002°27'3 5.8
2017-Jul-16 05:00N 44°07' W 002°30'0 0.4
2017-Jul-16 04:30N 44°07' W 002°30'0 0.5
2017-Jul-16 04:00N 44°07' W 002°30'0 0.6
2017-Jul-16 03:30N 44°07' W 002°29'0 0.6
2017-Jul-16 03:00N 44°07' W 002°29'0 0.8
2017-Jul-16 02:30N 44°08' W 002°29'0 0.8
2017-Jul-16 02:00N 44°08' W 002°28'0 0.8
2017-Jul-16 01:30N 44°08' W 002°28'0 0.8
2017-Jul-16 01:00N 44°08' W 002°28'0 0.8
2017-Jul-16 00:30N 44°09' W 002°27'0 0.8
2017-Jul-15 23:59N 44°09' W 002°27'1 0.8
2017-Jul-15 23:14N 44°10' W 002°27'  

Dump ship's entire track history